createdAt,value
2017-07-19T00:02:14.361Z,20.50
2017-07-19T00:04:41.887Z,20.50
2017-07-19T00:07:09.382Z,20.50
2017-07-19T00:09:36.892Z,20.50
2017-07-19T00:12:04.388Z,20.50
2017-07-19T00:14:31.912Z,20.40
2017-07-19T00:16:59.412Z,20.40
2017-07-19T00:19:26.934Z,20.40
2017-07-19T00:21:54.453Z,20.30
2017-07-19T00:24:22.042Z,20.30
2017-07-19T00:26:49.569Z,20.30
2017-07-19T00:29:17.080Z,20.30
2017-07-19T00:31:44.572Z,20.20
2017-07-19T00:34:12.093Z,20.20
2017-07-19T00:36:39.611Z,20.20
2017-07-19T00:39:07.152Z,20.20
2017-07-19T00:41:34.658Z,20.10
2017-07-19T00:44:02.169Z,20.00
2017-07-19T00:46:29.675Z,20.00
2017-07-19T00:48:57.190Z,20.00
2017-07-19T00:51:24.680Z,20.00
2017-07-19T00:53:52.192Z,20.00
2017-07-19T00:56:19.696Z,20.00
2017-07-19T00:58:47.213Z,19.90
2017-07-19T01:01:14.716Z,19.90
2017-07-19T01:03:42.431Z,19.90
2017-07-19T01:06:09.922Z,19.80
2017-07-19T01:08:37.440Z,19.80
2017-07-19T01:11:04.935Z,19.80
2017-07-19T01:13:32.460Z,19.70
2017-07-19T01:15:59.954Z,19.70
2017-07-19T01:18:27.482Z,19.70
2017-07-19T01:20:54.982Z,19.70
2017-07-19T01:23:22.500Z,19.60
2017-07-19T01:25:49.994Z,19.60
2017-07-19T01:28:17.517Z,19.60
2017-07-19T01:30:45.012Z,19.60
2017-07-19T01:33:12.528Z,19.60
2017-07-19T01:35:40.020Z,19.60
2017-07-19T01:38:07.549Z,19.70
2017-07-19T01:40:35.057Z,19.70
2017-07-19T01:43:02.572Z,19.70
2017-07-19T01:45:30.070Z,19.70
2017-07-19T01:47:57.584Z,19.70
2017-07-19T01:50:25.080Z,19.60
2017-07-19T01:52:52.604Z,19.60
2017-07-19T01:55:20.105Z,19.50
2017-07-19T01:57:47.636Z,19.50
2017-07-19T02:00:15.132Z,19.50
2017-07-19T02:02:42.650Z,19.50
2017-07-19T02:05:10.158Z,19.60
2017-07-19T02:07:37.684Z,19.50
2017-07-19T02:10:05.182Z,19.50
2017-07-19T02:12:32.692Z,19.50
2017-07-19T02:15:00.205Z,19.50
2017-07-19T02:17:27.726Z,19.50
2017-07-19T02:19:55.225Z,19.50
2017-07-19T02:22:22.728Z,19.40
2017-07-19T02:24:51.143Z,19.30
2017-07-19T02:27:18.684Z,19.40
2017-07-19T02:29:46.181Z,19.40
2017-07-19T02:32:14.524Z,19.30
2017-07-19T02:34:42.021Z,19.40
2017-07-19T02:37:09.541Z,19.40
2017-07-19T02:39:37.040Z,19.40
2017-07-19T02:42:04.582Z,19.40
2017-07-19T02:44:32.085Z,19.40
2017-07-19T02:46:59.601Z,19.40
2017-07-19T02:49:27.111Z,19.40
2017-07-19T02:51:54.633Z,19.40
2017-07-19T02:54:22.133Z,19.40
2017-07-19T02:56:49.657Z,19.40
2017-07-19T02:59:17.148Z,19.40
2017-07-19T03:01:44.652Z,19.40
2017-07-19T03:04:12.149Z,19.40
2017-07-19T03:06:39.665Z,19.50
2017-07-19T03:09:07.155Z,19.50
2017-07-19T03:11:34.670Z,19.50
2017-07-19T03:14:02.162Z,19.50
2017-07-19T03:16:29.671Z,19.50
2017-07-19T03:18:57.163Z,19.50
2017-07-19T03:21:24.677Z,19.40
2017-07-19T03:23:52.176Z,19.50
2017-07-19T03:26:19.692Z,19.50
2017-07-19T03:28:47.984Z,19.40
2017-07-19T03:31:15.477Z,19.40
2017-07-19T03:33:43.001Z,19.40
2017-07-19T03:36:10.499Z,19.40
2017-07-19T03:38:38.021Z,19.40
2017-07-19T03:41:05.512Z,19.30
2017-07-19T03:43:33.030Z,19.30
2017-07-19T03:46:00.534Z,19.30
2017-07-19T03:48:28.385Z,19.30
2017-07-19T03:50:55.892Z,19.40
2017-07-19T03:53:23.436Z,19.40
2017-07-19T03:55:50.944Z,19.40
2017-07-19T03:58:18.477Z,19.50
2017-07-19T04:00:45.981Z,19.50
2017-07-19T04:03:13.543Z,19.60
2017-07-19T04:05:41.073Z,19.70
2017-07-19T04:08:08.581Z,19.60
2017-07-19T04:10:36.101Z,19.70
2017-07-19T04:13:03.651Z,19.80
2017-07-19T04:15:31.150Z,19.90
2017-07-19T04:17:58.666Z,20.00
2017-07-19T04:20:26.176Z,20.00
2017-07-19T04:22:53.688Z,20.20
2017-07-19T04:25:21.184Z,20.20
2017-07-19T04:27:48.691Z,20.40
2017-07-19T04:30:16.185Z,20.50
2017-07-19T04:32:43.705Z,20.70
2017-07-19T04:35:11.209Z,20.90
2017-07-19T04:37:38.726Z,21.00
2017-07-19T04:40:06.224Z,21.40
2017-07-19T04:42:33.756Z,22.10
2017-07-19T04:45:01.252Z,23.00
2017-07-19T04:47:31.892Z,23.40
2017-07-19T04:49:59.384Z,23.40
2017-07-19T04:52:26.902Z,23.00
2017-07-19T04:54:54.397Z,22.50
2017-07-19T04:57:22.544Z,22.20
2017-07-19T04:59:50.037Z,22.10
2017-07-19T05:02:17.553Z,22.20
2017-07-19T05:04:45.066Z,22.00
2017-07-19T05:07:16.104Z,21.80
2017-07-19T05:09:43.597Z,21.60
2017-07-19T05:12:11.104Z,21.40
2017-07-19T05:14:38.602Z,21.20
2017-07-19T05:17:06.135Z,21.20
2017-07-19T05:19:33.632Z,21.10
2017-07-19T05:22:01.153Z,21.00
2017-07-19T05:24:28.642Z,21.00
2017-07-19T05:26:56.518Z,21.00
2017-07-19T05:29:24.080Z,21.10
2017-07-19T05:31:51.632Z,21.20
2017-07-19T05:34:19.129Z,21.40
2017-07-19T05:36:46.634Z,21.70
2017-07-19T05:39:14.137Z,22.10
2017-07-19T05:41:41.656Z,22.70
2017-07-19T05:44:09.157Z,23.20
2017-07-19T05:46:36.675Z,23.30
2017-07-19T05:49:04.177Z,23.30
2017-07-19T05:51:31.720Z,23.20
2017-07-19T05:53:59.220Z,22.90
2017-07-19T05:56:26.740Z,22.80
2017-07-19T05:58:54.242Z,22.70
2017-07-19T06:01:21.749Z,23.40
2017-07-19T06:03:49.265Z,24.80
2017-07-19T06:06:23.349Z,26.50
2017-07-19T06:08:50.869Z,28.20
2017-07-19T06:11:18.360Z,29.40
2017-07-19T06:13:49.456Z,30.20
2017-07-19T06:16:16.956Z,30.70
2017-07-19T06:18:44.480Z,30.90
2017-07-19T06:21:11.977Z,31.20
2017-07-19T06:23:39.512Z,31.10
2017-07-19T06:26:07.008Z,31.40
2017-07-19T06:28:34.520Z,31.40
2017-07-19T06:31:02.259Z,31.50
2017-07-19T06:33:30.281Z,31.20
2017-07-19T06:35:57.772Z,30.60
2017-07-19T06:38:25.280Z,30.00
2017-07-19T06:40:52.777Z,29.30
2017-07-19T06:43:20.289Z,28.50
2017-07-19T06:45:47.784Z,27.90
2017-07-19T06:48:15.537Z,27.30
2017-07-19T06:50:43.240Z,26.70
2017-07-19T06:53:11.059Z,26.50
2017-07-19T06:55:38.576Z,26.40
2017-07-19T06:58:06.085Z,26.20
2017-07-19T07:00:34.506Z,26.10
2017-07-19T07:03:02.065Z,26.00
2017-07-19T07:05:29.557Z,25.80
2017-07-19T07:07:57.053Z,25.80
2017-07-19T07:10:24.568Z,25.60
2017-07-19T07:12:52.060Z,25.50
2017-07-19T07:15:19.615Z,25.60
2017-07-19T07:17:47.124Z,25.60
2017-07-19T07:20:14.645Z,25.70
2017-07-19T07:22:42.201Z,25.60
2017-07-19T07:25:09.732Z,25.50
2017-07-19T07:27:37.225Z,25.60
2017-07-19T07:30:04.740Z,25.60
2017-07-19T07:32:32.261Z,25.60
2017-07-19T07:34:59.780Z,25.60
2017-07-19T07:37:27.273Z,25.60
2017-07-19T07:39:54.792Z,25.60
2017-07-19T07:42:22.296Z,25.60
2017-07-19T07:44:49.868Z,25.50
2017-07-19T07:47:17.354Z,25.60
2017-07-19T07:49:44.872Z,25.60
2017-07-19T07:52:12.365Z,25.60
2017-07-19T07:54:39.885Z,25.60
2017-07-19T07:57:07.377Z,25.70
2017-07-19T07:59:34.895Z,25.70
2017-07-19T08:02:02.876Z,25.80
2017-07-19T08:04:30.395Z,25.80
2017-07-19T08:06:57.905Z,25.90
2017-07-19T08:09:25.425Z,25.90
2017-07-19T08:11:52.917Z,25.90
2017-07-19T08:14:20.417Z,26.10
2017-07-19T08:16:47.905Z,26.10
2017-07-19T08:19:15.421Z,26.10
2017-07-19T08:21:42.922Z,26.20
2017-07-19T08:24:10.443Z,26.30
2017-07-19T08:26:37.944Z,26.30
2017-07-19T08:29:05.465Z,26.40
2017-07-19T08:31:32.960Z,26.50
2017-07-19T08:34:00.488Z,26.60
2017-07-19T08:36:28.024Z,26.70
2017-07-19T08:38:55.540Z,26.80
2017-07-19T08:41:23.032Z,26.90
2017-07-19T08:43:50.556Z,27.00
2017-07-19T08:46:18.893Z,27.00
2017-07-19T08:48:46.401Z,27.00
2017-07-19T08:51:13.897Z,27.10
2017-07-19T08:53:41.824Z,27.10
2017-07-19T08:56:09.326Z,27.20
2017-07-19T08:58:36.848Z,27.30
2017-07-19T09:01:04.347Z,27.30
2017-07-19T09:03:31.848Z,27.40
2017-07-19T09:05:59.338Z,27.40
2017-07-19T09:08:26.865Z,27.50
2017-07-19T09:10:54.360Z,27.60
2017-07-19T09:13:21.873Z,27.60
2017-07-19T09:15:49.358Z,27.60
2017-07-19T09:18:16.890Z,27.70
2017-07-19T09:20:44.381Z,27.80
2017-07-19T09:23:11.913Z,27.80
2017-07-19T09:25:39.413Z,27.90
2017-07-19T09:28:06.936Z,27.90
2017-07-19T09:30:34.436Z,27.90
2017-07-19T09:33:01.953Z,27.90
2017-07-19T09:35:29.462Z,28.00
2017-07-19T09:37:56.972Z,28.10
2017-07-19T09:40:24.463Z,28.10
2017-07-19T09:42:51.970Z,28.10
2017-07-19T09:45:19.481Z,28.20
2017-07-19T09:47:46.978Z,28.20
2017-07-19T09:50:14.492Z,28.20
2017-07-19T09:52:41.990Z,28.10
2017-07-19T09:55:09.511Z,28.20
2017-07-19T09:57:37.012Z,28.30
2017-07-19T10:00:04.534Z,28.40
2017-07-19T10:02:32.036Z,28.40
2017-07-19T10:04:59.548Z,28.40
2017-07-19T10:07:27.039Z,28.50
2017-07-19T10:09:54.557Z,28.50
2017-07-19T10:12:22.036Z,28.50
2017-07-19T10:14:49.550Z,28.50
2017-07-19T10:17:17.065Z,28.60
2017-07-19T10:19:44.577Z,28.50
2017-07-19T10:22:12.078Z,28.60
2017-07-19T10:24:39.592Z,28.60
2017-07-19T10:27:07.098Z,28.70
2017-07-19T10:29:34.610Z,28.70
2017-07-19T10:32:02.125Z,28.60
2017-07-19T10:34:29.656Z,28.40
2017-07-19T10:36:57.148Z,28.40
2017-07-19T10:39:24.706Z,28.50
2017-07-19T10:41:52.205Z,28.60
2017-07-19T10:44:19.725Z,28.70
2017-07-19T10:46:47.207Z,28.80
2017-07-19T10:49:14.724Z,28.80
2017-07-19T10:51:42.211Z,28.90
2017-07-19T10:54:09.723Z,28.90
2017-07-19T10:56:37.222Z,29.00
2017-07-19T10:59:04.744Z,29.10
2017-07-19T11:01:32.249Z,29.10
2017-07-19T11:03:59.784Z,29.10
2017-07-19T11:06:27.298Z,29.00
2017-07-19T11:08:54.812Z,29.10
2017-07-19T11:11:22.315Z,29.10
2017-07-19T11:13:49.837Z,29.00
2017-07-19T11:16:17.332Z,28.90
2017-07-19T11:18:44.836Z,28.80
2017-07-19T11:21:12.332Z,28.90
2017-07-19T11:23:39.856Z,29.00
2017-07-19T11:26:08.368Z,29.00
2017-07-19T11:28:35.949Z,29.10
2017-07-19T11:31:03.580Z,29.20
2017-07-19T11:33:31.141Z,29.30
2017-07-19T11:35:58.687Z,29.50
2017-07-19T11:38:26.254Z,29.50
2017-07-19T11:40:53.785Z,29.60
2017-07-19T11:43:21.305Z,29.60
2017-07-19T11:45:48.805Z,29.50
2017-07-19T11:48:16.323Z,29.50
2017-07-19T11:50:43.829Z,29.50
2017-07-19T11:53:11.340Z,29.60
2017-07-19T11:55:38.881Z,29.70
2017-07-19T11:58:06.395Z,29.70
2017-07-19T12:00:33.894Z,29.90
2017-07-19T12:03:01.637Z,30.10
2017-07-19T12:05:29.134Z,30.10
2017-07-19T12:07:56.651Z,30.10
2017-07-19T12:10:24.399Z,30.10
2017-07-19T12:12:51.923Z,30.10
2017-07-19T12:15:19.420Z,30.00
2017-07-19T12:17:46.941Z,30.00
2017-07-19T12:20:14.436Z,30.10
2017-07-19T12:22:41.960Z,30.20
2017-07-19T12:25:09.818Z,30.30
2017-07-19T12:27:37.336Z,30.30
2017-07-19T12:30:04.861Z,30.40
2017-07-19T12:32:32.373Z,30.40
2017-07-19T12:34:59.878Z,30.40
2017-07-19T12:37:27.398Z,30.50
2017-07-19T12:39:54.898Z,30.50
2017-07-19T12:42:22.421Z,30.40
2017-07-19T12:44:49.931Z,30.40
2017-07-19T12:47:17.472Z,30.30
2017-07-19T12:49:44.994Z,30.40
2017-07-19T12:52:12.734Z,30.50
2017-07-19T12:54:40.236Z,30.50
2017-07-19T12:57:07.765Z,30.70
2017-07-19T12:59:35.288Z,30.80
2017-07-19T13:02:02.813Z,30.90
2017-07-19T13:04:30.329Z,31.00
2017-07-19T13:06:57.844Z,31.00
2017-07-19T13:09:25.346Z,31.00
2017-07-19T13:11:52.869Z,31.00
2017-07-19T13:14:20.369Z,31.10
2017-07-19T13:16:47.895Z,31.10
2017-07-19T13:19:15.421Z,31.10
2017-07-19T13:21:42.943Z,31.30
2017-07-19T13:24:10.485Z,31.30
2017-07-19T13:26:38.017Z,31.30
2017-07-19T13:29:05.523Z,31.10
2017-07-19T13:31:33.037Z,30.90
2017-07-19T13:34:00.564Z,30.80
2017-07-19T13:36:28.080Z,30.60
2017-07-19T13:38:55.586Z,30.70
2017-07-19T13:41:23.113Z,30.80
2017-07-19T13:43:50.646Z,31.00
2017-07-19T13:46:18.171Z,31.10
2017-07-19T13:48:45.669Z,31.20
2017-07-19T13:51:13.191Z,31.20
2017-07-19T13:53:40.696Z,31.20
2017-07-19T13:56:08.214Z,31.20
2017-07-19T13:58:35.707Z,31.10
2017-07-19T14:01:03.229Z,31.10
2017-07-19T14:03:30.733Z,31.10
2017-07-19T14:05:58.266Z,31.00
2017-07-19T14:08:25.780Z,31.00
2017-07-19T14:10:57.214Z,31.10
2017-07-19T14:13:24.742Z,31.00
2017-07-19T14:15:52.390Z,31.10
2017-07-19T14:18:19.913Z,31.10
2017-07-19T14:20:47.481Z,31.10
2017-07-19T14:23:15.061Z,31.10
2017-07-19T14:25:42.608Z,31.20
2017-07-19T14:28:10.197Z,31.40
2017-07-19T14:30:37.732Z,31.50
2017-07-19T14:33:05.277Z,31.70
2017-07-19T14:35:32.820Z,32.10
2017-07-19T14:38:00.418Z,32.40
2017-07-19T14:40:27.957Z,32.60
2017-07-19T14:42:55.504Z,32.70
2017-07-19T14:45:23.038Z,32.70
2017-07-19T14:47:50.638Z,32.80
2017-07-19T14:50:18.209Z,33.00
2017-07-19T14:52:45.826Z,32.90
2017-07-19T14:55:14.276Z,32.80
2017-07-19T14:57:41.831Z,32.70
2017-07-19T15:00:09.346Z,32.60
2017-07-19T15:02:36.937Z,32.30
2017-07-19T15:05:04.474Z,32.10
2017-07-19T15:07:32.025Z,31.90
2017-07-19T15:12:27.729Z,31.80
2017-07-19T15:14:55.322Z,31.60
2017-07-19T15:17:22.889Z,31.40
2017-07-19T15:19:50.389Z,31.30
2017-07-19T15:22:17.954Z,31.20
2017-07-19T15:24:45.485Z,31.30
2017-07-19T15:27:13.063Z,31.40
2017-07-19T15:29:40.597Z,31.30
2017-07-19T15:32:08.130Z,31.10
2017-07-19T15:34:35.674Z,30.90
2017-07-19T15:37:03.221Z,30.80
2017-07-19T15:39:30.725Z,30.50
2017-07-19T15:41:58.502Z,30.30
2017-07-19T15:44:26.030Z,30.20
2017-07-19T15:46:53.619Z,30.00
2017-07-19T15:49:21.159Z,29.70
2017-07-19T15:51:48.742Z,29.50
2017-07-19T15:54:16.273Z,29.20
2017-07-19T15:56:43.832Z,29.10
2017-07-19T15:59:11.360Z,28.90
2017-07-19T16:01:38.985Z,28.90
2017-07-19T16:04:06.530Z,28.80
2017-07-19T16:06:34.096Z,28.90
2017-07-19T16:09:01.728Z,28.90
2017-07-19T16:11:29.397Z,29.00
2017-07-19T16:13:56.977Z,29.10
2017-07-19T16:16:24.531Z,29.30
2017-07-19T16:18:52.082Z,29.50
2017-07-19T16:21:19.697Z,29.70
2017-07-19T16:23:47.254Z,29.90
2017-07-19T16:26:14.785Z,30.10
2017-07-19T16:28:42.370Z,30.30
2017-07-19T16:31:09.954Z,30.30
2017-07-19T16:33:37.557Z,30.50
2017-07-19T16:36:05.209Z,30.60
2017-07-19T16:38:32.789Z,30.80
2017-07-19T16:41:00.401Z,30.70
2017-07-19T16:43:27.974Z,30.60
2017-07-19T16:45:55.550Z,30.50
2017-07-19T16:48:23.174Z,30.40
2017-07-19T16:50:50.718Z,30.40
2017-07-19T16:53:18.235Z,30.30
2017-07-19T16:55:45.813Z,30.30
2017-07-19T16:58:13.364Z,30.30
2017-07-19T17:00:40.923Z,30.20
2017-07-19T17:03:08.459Z,30.20
2017-07-19T17:05:41.047Z,30.10
2017-07-19T17:08:08.573Z,30.00
2017-07-19T17:10:36.120Z,30.00
2017-07-19T17:13:03.727Z,30.00
2017-07-19T17:15:31.310Z,29.90
2017-07-19T17:17:58.869Z,29.90
2017-07-19T17:20:26.493Z,29.70
2017-07-19T17:22:54.027Z,29.60
2017-07-19T17:25:21.556Z,29.40
2017-07-19T17:27:49.087Z,29.20
2017-07-19T17:30:16.631Z,29.20
2017-07-19T17:32:44.171Z,29.10
2017-07-19T17:35:11.734Z,29.00
2017-07-19T17:37:39.273Z,28.90
2017-07-19T17:40:06.864Z,28.80
2017-07-19T17:42:34.418Z,28.70
2017-07-19T17:45:01.985Z,28.60
2017-07-19T17:47:29.506Z,28.50
2017-07-19T17:49:57.054Z,28.50
2017-07-19T17:52:24.582Z,28.40
2017-07-19T17:54:52.126Z,28.30
2017-07-19T17:57:19.669Z,28.40
2017-07-19T17:59:47.242Z,28.40
2017-07-19T18:02:14.754Z,28.40
2017-07-19T18:04:42.315Z,28.50
2017-07-19T18:07:09.861Z,28.50
2017-07-19T18:09:37.454Z,28.40
2017-07-19T18:12:05.452Z,28.20
2017-07-19T18:14:33.029Z,28.10
2017-07-19T18:17:00.675Z,28.00
2017-07-19T18:19:28.259Z,28.00
2017-07-19T18:21:55.810Z,27.90
2017-07-19T18:24:23.368Z,27.80
2017-07-19T18:26:51.730Z,27.70
2017-07-19T18:29:19.334Z,27.60
2017-07-19T18:31:46.888Z,27.50
2017-07-19T18:34:14.447Z,27.40
2017-07-19T18:36:42.047Z,27.30
2017-07-19T18:39:09.597Z,27.20
2017-07-19T18:41:37.140Z,27.10
2017-07-19T18:44:04.698Z,27.00
2017-07-19T18:46:32.290Z,26.90
2017-07-19T18:48:59.826Z,26.80
2017-07-19T18:51:27.343Z,26.70
2017-07-19T18:53:54.910Z,26.70
2017-07-19T18:56:22.483Z,26.60
2017-07-19T18:58:50.019Z,26.50
2017-07-19T19:01:17.530Z,26.50
2017-07-19T19:03:45.077Z,26.50
2017-07-19T19:06:12.594Z,26.60
2017-07-19T19:08:40.158Z,26.50
2017-07-19T19:11:11.043Z,26.40
2017-07-19T19:13:38.606Z,26.40
2017-07-19T19:16:06.254Z,26.40
2017-07-19T19:18:33.792Z,26.30
2017-07-19T19:21:01.307Z,26.30
2017-07-19T19:23:28.811Z,26.30
2017-07-19T19:25:56.328Z,26.20
2017-07-19T19:28:23.833Z,26.10
2017-07-19T19:30:53.263Z,26.10
2017-07-19T19:33:20.788Z,26.00
2017-07-19T19:35:49.287Z,25.90
2017-07-19T19:38:16.782Z,25.80
2017-07-19T19:40:44.797Z,25.80
2017-07-19T19:43:15.789Z,25.70
2017-07-19T19:45:45.249Z,25.60
2017-07-19T19:48:12.744Z,25.50
2017-07-19T19:50:40.272Z,25.40
2017-07-19T19:53:07.795Z,25.40
2017-07-19T19:55:42.360Z,25.30
2017-07-19T19:58:09.912Z,25.30
2017-07-19T20:00:40.438Z,25.10
2017-07-19T20:03:07.929Z,25.00
2017-07-19T20:05:35.465Z,24.90
2017-07-19T20:08:04.260Z,24.80
2017-07-19T20:10:31.806Z,24.50
2017-07-19T20:12:59.330Z,24.00
2017-07-19T20:15:26.858Z,23.50
2017-07-19T20:17:54.389Z,23.10
2017-07-19T20:20:21.913Z,22.70
2017-07-19T20:22:49.428Z,22.40
2017-07-19T20:25:19.778Z,22.20
2017-07-19T20:27:47.294Z,22.10
2017-07-19T20:30:16.906Z,22.00
2017-07-19T20:32:46.241Z,21.90
2017-07-19T20:35:16.623Z,21.80
2017-07-19T20:37:44.130Z,21.70
2017-07-19T20:40:11.661Z,21.70
2017-07-19T20:42:40.071Z,21.50
2017-07-19T20:45:07.589Z,21.40
2017-07-19T20:47:35.109Z,21.40
2017-07-19T20:50:02.613Z,21.30
2017-07-19T20:52:30.153Z,21.20
2017-07-19T20:54:57.673Z,21.00
2017-07-19T20:57:25.245Z,20.90
2017-07-19T20:59:52.755Z,20.80
2017-07-19T21:02:20.605Z,20.90
2017-07-19T21:04:49.262Z,20.90
2017-07-19T21:07:16.809Z,20.80
2017-07-19T21:09:44.314Z,20.60
2017-07-19T21:12:11.836Z,20.50
2017-07-19T21:14:41.497Z,20.30
2017-07-19T21:17:09.760Z,19.90
2017-07-19T21:19:37.265Z,19.70
2017-07-19T21:22:04.794Z,19.60
2017-07-19T21:24:35.117Z,19.60
2017-07-19T21:27:02.653Z,19.60
2017-07-19T21:29:30.962Z,19.70
2017-07-19T21:31:58.532Z,19.80
2017-07-19T21:34:26.030Z,19.80
2017-07-19T21:36:53.555Z,19.70
2017-07-19T21:39:22.860Z,19.60
2017-07-19T21:41:50.386Z,19.50
2017-07-19T21:44:20.707Z,19.50
2017-07-19T21:46:49.920Z,19.50
2017-07-19T21:49:17.460Z,19.50
2017-07-19T21:51:44.979Z,19.50
2017-07-19T21:54:12.497Z,19.50
2017-07-19T21:56:39.987Z,19.50
2017-07-19T21:59:07.519Z,19.50
2017-07-19T22:01:35.027Z,19.50
2017-07-19T22:04:02.558Z,19.50
2017-07-19T22:06:30.103Z,19.60
2017-07-19T22:08:57.697Z,19.60
2017-07-19T22:11:25.233Z,19.50
2017-07-19T22:13:52.766Z,19.50
2017-07-19T22:16:20.265Z,19.50
2017-07-19T22:18:47.781Z,19.50
2017-07-19T22:21:15.285Z,19.50
2017-07-19T22:23:42.805Z,19.40
2017-07-19T22:26:10.310Z,19.30
2017-07-19T22:28:37.843Z,19.30
2017-07-19T22:31:05.348Z,19.30
2017-07-19T22:33:32.873Z,19.40
2017-07-19T22:36:00.380Z,19.30
2017-07-19T22:38:27.904Z,19.20
2017-07-19T22:40:55.405Z,19.20
2017-07-19T22:43:22.928Z,19.20
2017-07-19T22:45:50.434Z,19.30
2017-07-19T22:48:17.961Z,19.30
2017-07-19T22:50:45.465Z,19.20
2017-07-19T22:53:12.984Z,19.20
2017-07-19T22:55:40.490Z,19.20
2017-07-19T22:58:07.992Z,19.20
2017-07-19T23:00:35.514Z,19.20
2017-07-19T23:03:03.021Z,19.20
2017-07-19T23:05:31.510Z,19.20
2017-07-19T23:07:59.224Z,19.30
2017-07-19T23:10:26.744Z,19.20
2017-07-19T23:12:54.239Z,19.30
2017-07-19T23:15:21.777Z,19.30
2017-07-19T23:17:49.289Z,19.40
2017-07-19T23:20:16.815Z,19.40
2017-07-19T23:22:44.338Z,19.40
2017-07-19T23:25:11.877Z,19.40
2017-07-19T23:27:39.380Z,19.40
2017-07-19T23:30:06.948Z,19.40
2017-07-19T23:32:34.445Z,19.40
2017-07-19T23:35:01.985Z,19.40
2017-07-19T23:37:29.480Z,19.40
2017-07-19T23:39:57.000Z,19.40
2017-07-19T23:42:24.498Z,19.40
2017-07-19T23:44:52.025Z,19.40
2017-07-19T23:47:19.520Z,19.40
2017-07-19T23:49:47.036Z,19.30
2017-07-19T23:52:14.591Z,19.30
2017-07-19T23:54:42.112Z,19.30
2017-07-19T23:57:09.625Z,19.30
2017-07-19T23:59:37.165Z,19.20
